Benton, New Hampshire
Current Conditions -  °F | °C
As of 2:35 PM on Thursday 18 Dec 2014 (Local Time) from K1P1 Reporting Station
Overcast Overcast  
Wind Chill: 26°   Ceiling: 2700
Heat Index: 35°   Visibility: 10mi
Dew Point: 32°   Wind: 15mph
Humidity: 89%   Direction: 290°WNW
Pressure: 29.75"   Gusts: 24mph
Location:  44.0015°N, 72.0028°W
Report Text: K1P1 181935Z AUTO 29013G21KT 10SM OVC027 02/00 A2975 RMK AO2 T00170000
Loading
Personal Weather Stations






























Interactive Weather Map New forecast layout! Learn more

10-Day Weather Forecast

Advertisements
Track Severe Weather on mobile